sensor_id;sensor_type;location;lat;lon;timestamp;P1;durP1;ratioP1;P2;durP2;ratioP2
14768;SDS011;7476;49.404;11.152;2023-06-14T00:02:14;5.40;;;4.07;;
14768;SDS011;7476;49.404;11.152;2023-06-14T00:04:41;4.67;;;4.27;;
14768;SDS011;7476;49.404;11.152;2023-06-14T00:07:08;5.17;;;4.37;;
14768;SDS011;7476;49.404;11.152;2023-06-14T00:09:35;5.67;;;4.40;;
14768;SDS011;7476;49.404;11.152;2023-06-14T00:12:01;5.17;;;4.20;;
14768;SDS011;7476;49.404;11.152;2023-06-14T00:14:28;6.00;;;4.10;;
14768;SDS011;7476;49.404;11.152;2023-06-14T00:16:55;5.97;;;4.40;;
14768;SDS011;7476;49.404;11.152;2023-06-14T00:19:24;6.30;;;4.10;;
14768;SDS011;7476;49.404;11.152;2023-06-14T00:21:51;6.20;;;4.30;;
14768;SDS011;7476;49.404;11.152;2023-06-14T00:24:18;5.47;;;4.00;;
14768;SDS011;7476;49.404;11.152;2023-06-14T00:26:45;6.07;;;4.30;;
14768;SDS011;7476;49.404;11.152;2023-06-14T00:29:11;4.60;;;4.13;;
14768;SDS011;7476;49.404;11.152;2023-06-14T00:31:38;4.90;;;4.30;;
14768;SDS011;7476;49.404;11.152;2023-06-14T00:34:05;6.67;;;4.63;;
14768;SDS011;7476;49.404;11.152;2023-06-14T00:36:33;5.37;;;4.87;;
14768;SDS011;7476;49.404;11.152;2023-06-14T00:38:59;4.77;;;4.37;;
14768;SDS011;7476;49.404;11.152;2023-06-14T00:41:26;5.67;;;4.27;;
14768;SDS011;7476;49.404;11.152;2023-06-14T00:43:53;4.90;;;4.33;;
14768;SDS011;7476;49.404;11.152;2023-06-14T00:46:21;5.47;;;4.70;;
14768;SDS011;7476;49.404;11.152;2023-06-14T00:48:48;5.40;;;4.43;;
14768;SDS011;7476;49.404;11.152;2023-06-14T00:51:15;5.07;;;4.47;;
14768;SDS011;7476;49.404;11.152;2023-06-14T00:53:43;5.93;;;4.70;;
14768;SDS011;7476;49.404;11.152;2023-06-14T00:56:12;6.10;;;5.20;;
14768;SDS011;7476;49.404;11.152;2023-06-14T00:58:39;5.20;;;4.67;;
14768;SDS011;7476;49.404;11.152;2023-06-14T01:01:06;6.07;;;4.83;;
14768;SDS011;7476;49.404;11.152;2023-06-14T01:03:33;5.70;;;5.00;;
14768;SDS011;7476;49.404;11.152;2023-06-14T01:06:02;5.43;;;4.87;;
14768;SDS011;7476;49.404;11.152;2023-06-14T01:08:40;5.30;;;4.80;;
14768;SDS011;7476;49.404;11.152;2023-06-14T01:11:18;5.87;;;4.60;;
14768;SDS011;7476;49.404;11.152;2023-06-14T01:13:50;5.37;;;4.87;;
14768;SDS011;7476;49.404;11.152;2023-06-14T01:16:19;5.37;;;4.87;;
14768;SDS011;7476;49.404;11.152;2023-06-14T01:18:46;6.20;;;5.50;;
14768;SDS011;7476;49.404;11.152;2023-06-14T01:21:20;5.53;;;5.03;;
14768;SDS011;7476;49.404;11.152;2023-06-14T01:23:50;6.27;;;5.43;;
14768;SDS011;7476;49.404;11.152;2023-06-14T01:26:18;5.60;;;4.83;;
14768;SDS011;7476;49.404;11.152;2023-06-14T01:28:45;5.87;;;5.27;;
14768;SDS011;7476;49.404;11.152;2023-06-14T01:31:17;5.20;;;4.67;;
14768;SDS011;7476;49.404;11.152;2023-06-14T01:33:46;6.73;;;5.30;;
14768;SDS011;7476;49.404;11.152;2023-06-14T01:36:15;5.50;;;5.00;;
14768;SDS011;7476;49.404;11.152;2023-06-14T01:38:43;5.30;;;4.80;;
14768;SDS011;7476;49.404;11.152;2023-06-14T01:41:12;5.83;;;5.23;;
14768;SDS011;7476;49.404;11.152;2023-06-14T01:43:40;7.00;;;5.30;;
14768;SDS011;7476;49.404;11.152;2023-06-14T01:46:08;6.90;;;5.13;;
14768;SDS011;7476;49.404;11.152;2023-06-14T01:48:35;7.63;;;5.10;;
14768;SDS011;7476;49.404;11.152;2023-06-14T01:51:02;6.00;;;5.00;;
14768;SDS011;7476;49.404;11.152;2023-06-14T01:53:29;6.63;;;5.50;;
14768;SDS011;7476;49.404;11.152;2023-06-14T01:55:55;5.30;;;4.80;;
14768;SDS011;7476;49.404;11.152;2023-06-14T01:58:24;6.40;;;5.40;;
14768;SDS011;7476;49.404;11.152;2023-06-14T02:00:51;9.60;;;5.47;;
14768;SDS011;7476;49.404;11.152;2023-06-14T02:03:20;7.37;;;5.30;;
14768;SDS011;7476;49.404;11.152;2023-06-14T02:05:48;5.90;;;5.40;;
14768;SDS011;7476;49.404;11.152;2023-06-14T02:08:15;5.40;;;4.90;;
14768;SDS011;7476;49.404;11.152;2023-06-14T02:10:41;6.17;;;5.37;;
14768;SDS011;7476;49.404;11.152;2023-06-14T02:13:08;5.50;;;5.00;;
14768;SDS011;7476;49.404;11.152;2023-06-14T02:15:36;5.73;;;4.93;;
14768;SDS011;7476;49.404;11.152;2023-06-14T02:18:03;8.03;;;5.40;;
14768;SDS011;7476;49.404;11.152;2023-06-14T02:20:30;6.07;;;5.47;;
14768;SDS011;7476;49.404;11.152;2023-06-14T02:22:57;7.37;;;5.00;;
14768;SDS011;7476;49.404;11.152;2023-06-14T02:25:23;5.67;;;5.07;;
14768;SDS011;7476;49.404;11.152;2023-06-14T02:27:52;5.93;;;5.33;;
14768;SDS011;7476;49.404;11.152;2023-06-14T02:30:19;7.67;;;5.03;;
14768;SDS011;7476;49.404;11.152;2023-06-14T02:32:47;5.93;;;5.27;;
14768;SDS011;7476;49.404;11.152;2023-06-14T02:35:16;5.30;;;4.80;;
14768;SDS011;7476;49.404;11.152;2023-06-14T02:37:42;5.93;;;5.20;;
14768;SDS011;7476;49.404;11.152;2023-06-14T02:40:09;7.37;;;5.73;;
14768;SDS011;7476;49.404;11.152;2023-06-14T02:42:36;5.93;;;5.30;;
14768;SDS011;7476;49.404;11.152;2023-06-14T02:45:03;5.60;;;5.00;;
14768;SDS011;7476;49.404;11.152;2023-06-14T02:47:30;7.00;;;5.93;;
14768;SDS011;7476;49.404;11.152;2023-06-14T02:49:58;5.73;;;5.17;;
14768;SDS011;7476;49.404;11.152;2023-06-14T02:52:25;6.20;;;5.23;;
14768;SDS011;7476;49.404;11.152;2023-06-14T02:54:52;5.93;;;5.33;;
14768;SDS011;7476;49.404;11.152;2023-06-14T02:57:19;6.30;;;5.20;;
14768;SDS011;7476;49.404;11.152;2023-06-14T02:59:45;5.80;;;5.03;;
14768;SDS011;7476;49.404;11.152;2023-06-14T03:02:12;7.07;;;5.10;;
14768;SDS011;7476;49.404;11.152;2023-06-14T03:04:39;6.90;;;4.97;;
14768;SDS011;7476;49.404;11.152;2023-06-14T03:07:09;6.03;;;5.00;;
14768;SDS011;7476;49.404;11.152;2023-06-14T03:09:37;5.83;;;5.20;;
14768;SDS011;7476;49.404;11.152;2023-06-14T03:12:04;7.33;;;5.37;;
14768;SDS011;7476;49.404;11.152;2023-06-14T03:14:32;8.23;;;5.47;;
14768;SDS011;7476;49.404;11.152;2023-06-14T03:16:59;7.07;;;5.67;;
14768;SDS011;7476;49.404;11.152;2023-06-14T03:19:26;8.10;;;5.90;;
14768;SDS011;7476;49.404;11.152;2023-06-14T03:21:53;6.70;;;5.70;;
14768;SDS011;7476;49.404;11.152;2023-06-14T03:24:23;7.60;;;6.23;;
14768;SDS011;7476;49.404;11.152;2023-06-14T03:26:52;7.00;;;5.80;;
14768;SDS011;7476;49.404;11.152;2023-06-14T03:29:18;6.47;;;5.87;;
14768;SDS011;7476;49.404;11.152;2023-06-14T03:31:56;6.70;;;6.07;;
14768;SDS011;7476;49.404;11.152;2023-06-14T03:34:24;6.47;;;5.80;;
14768;SDS011;7476;49.404;11.152;2023-06-14T03:36:50;7.07;;;6.37;;
14768;SDS011;7476;49.404;11.152;2023-06-14T03:39:17;11.70;;;5.80;;
14768;SDS011;7476;49.404;11.152;2023-06-14T03:41:45;7.07;;;5.80;;
14768;SDS011;7476;49.404;11.152;2023-06-14T03:44:13;7.90;;;6.00;;
14768;SDS011;7476;49.404;11.152;2023-06-14T03:46:41;6.47;;;5.83;;
14768;SDS011;7476;49.404;11.152;2023-06-14T03:49:08;7.33;;;5.90;;
14768;SDS011;7476;49.404;11.152;2023-06-14T03:51:34;7.47;;;5.87;;
14768;SDS011;7476;49.404;11.152;2023-06-14T03:54:01;6.20;;;5.60;;
14768;SDS011;7476;49.404;11.152;2023-06-14T03:56:28;6.40;;;5.40;;
14768;SDS011;7476;49.404;11.152;2023-06-14T03:58:56;6.70;;;6.00;;
14768;SDS011;7476;49.404;11.152;2023-06-14T04:01:23;6.87;;;5.50;;
14768;SDS011;7476;49.404;11.152;2023-06-14T04:03:54;7.90;;;5.93;;
14768;SDS011;7476;49.404;11.152;2023-06-14T04:06:22;7.57;;;6.00;;
14768;SDS011;7476;49.404;11.152;2023-06-14T04:08:50;6.83;;;5.83;;
14768;SDS011;7476;49.404;11.152;2023-06-14T04:11:17;6.13;;;5.60;;
14768;SDS011;7476;49.404;11.152;2023-06-14T04:13:44;6.60;;;5.63;;
14768;SDS011;7476;49.404;11.152;2023-06-14T04:16:13;7.50;;;5.80;;
14768;SDS011;7476;49.404;11.152;2023-06-14T04:18:40;7.33;;;5.67;;
14768;SDS011;7476;49.404;11.152;2023-06-14T04:21:06;6.27;;;5.67;;
14768;SDS011;7476;49.404;11.152;2023-06-14T04:23:33;7.23;;;6.23;;
14768;SDS011;7476;49.404;11.152;2023-06-14T04:26:00;6.10;;;5.50;;
14768;SDS011;7476;49.404;11.152;2023-06-14T04:28:27;9.50;;;5.60;;
14768;SDS011;7476;49.404;11.152;2023-06-14T04:30:54;6.83;;;5.10;;
14768;SDS011;7476;49.404;11.152;2023-06-14T04:33:22;7.00;;;5.00;;
14768;SDS011;7476;49.404;11.152;2023-06-14T04:35:50;7.40;;;4.90;;
14768;SDS011;7476;49.404;11.152;2023-06-14T04:38:18;5.73;;;4.73;;
14768;SDS011;7476;49.404;11.152;2023-06-14T04:40:49;5.73;;;4.63;;
14768;SDS011;7476;49.404;11.152;2023-06-14T04:43:18;6.47;;;4.83;;
14768;SDS011;7476;49.404;11.152;2023-06-14T04:45:52;5.27;;;4.77;;
14768;SDS011;7476;49.404;11.152;2023-06-14T04:48:19;7.13;;;4.70;;
14768;SDS011;7476;49.404;11.152;2023-06-14T04:50:48;5.33;;;4.40;;
14768;SDS011;7476;49.404;11.152;2023-06-14T04:53:17;5.40;;;4.27;;
14768;SDS011;7476;49.404;11.152;2023-06-14T04:55:46;4.90;;;4.30;;
14768;SDS011;7476;49.404;11.152;2023-06-14T04:58:13;6.63;;;4.20;;
14768;SDS011;7476;49.404;11.152;2023-06-14T05:00:40;4.97;;;3.90;;
14768;SDS011;7476;49.404;11.152;2023-06-14T05:03:08;7.27;;;4.70;;
14768;SDS011;7476;49.404;11.152;2023-06-14T05:05:38;7.07;;;4.30;;
14768;SDS011;7476;49.404;11.152;2023-06-14T05:08:06;4.47;;;4.07;;
14768;SDS011;7476;49.404;11.152;2023-06-14T05:10:33;5.60;;;3.63;;
14768;SDS011;7476;49.404;11.152;2023-06-14T05:13:01;6.07;;;4.47;;
14768;SDS011;7476;49.404;11.152;2023-06-14T05:15:28;5.13;;;4.30;;
14768;SDS011;7476;49.404;11.152;2023-06-14T05:17:54;4.27;;;3.87;;
14768;SDS011;7476;49.404;11.152;2023-06-14T05:20:21;4.17;;;3.83;;
14768;SDS011;7476;49.404;11.152;2023-06-14T05:22:49;4.70;;;4.20;;
14768;SDS011;7476;49.404;11.152;2023-06-14T05:25:18;5.57;;;4.33;;
14768;SDS011;7476;49.404;11.152;2023-06-14T05:27:45;5.20;;;4.03;;
14768;SDS011;7476;49.404;11.152;2023-06-14T05:30:13;8.03;;;4.50;;
14768;SDS011;7476;49.404;11.152;2023-06-14T05:32:40;6.37;;;4.20;;
14768;SDS011;7476;49.404;11.152;2023-06-14T05:35:07;5.53;;;4.77;;
14768;SDS011;7476;49.404;11.152;2023-06-14T05:37:35;4.60;;;4.20;;
14768;SDS011;7476;49.404;11.152;2023-06-14T05:40:02;5.63;;;4.23;;
14768;SDS011;7476;49.404;11.152;2023-06-14T05:42:32;8.00;;;4.40;;
14768;SDS011;7476;49.404;11.152;2023-06-14T05:44:58;7.23;;;4.43;;
14768;SDS011;7476;49.404;11.152;2023-06-14T05:47:25;8.93;;;5.20;;
14768;SDS011;7476;49.404;11.152;2023-06-14T05:49:52;7.33;;;4.80;;
14768;SDS011;7476;49.404;11.152;2023-06-14T05:52:19;4.83;;;4.43;;
14768;SDS011;7476;49.404;11.152;2023-06-14T05:54:46;5.60;;;4.57;;
14768;SDS011;7476;49.404;11.152;2023-06-14T05:57:13;6.97;;;4.40;;
14768;SDS011;7476;49.404;11.152;2023-06-14T05:59:41;7.53;;;4.47;;
14768;SDS011;7476;49.404;11.152;2023-06-14T06:02:08;7.27;;;4.17;;
14768;SDS011;7476;49.404;11.152;2023-06-14T06:04:34;5.07;;;4.67;;
14768;SDS011;7476;49.404;11.152;2023-06-14T06:07:02;4.80;;;4.10;;
14768;SDS011;7476;49.404;11.152;2023-06-14T06:09:30;5.10;;;4.60;;
14768;SDS011;7476;49.404;11.152;2023-06-14T06:11:57;4.80;;;4.30;;
14768;SDS011;7476;49.404;11.152;2023-06-14T06:14:23;4.40;;;4.00;;
14768;SDS011;7476;49.404;11.152;2023-06-14T06:16:51;7.07;;;4.53;;
14768;SDS011;7476;49.404;11.152;2023-06-14T06:19:18;8.57;;;4.60;;
14768;SDS011;7476;49.404;11.152;2023-06-14T06:21:45;4.87;;;3.83;;
14768;SDS011;7476;49.404;11.152;2023-06-14T06:24:11;4.47;;;4.07;;
14768;SDS011;7476;49.404;11.152;2023-06-14T06:26:38;5.23;;;4.20;;
14768;SDS011;7476;49.404;11.152;2023-06-14T06:29:05;5.63;;;4.23;;
14768;SDS011;7476;49.404;11.152;2023-06-14T06:31:32;4.00;;;3.70;;
14768;SDS011;7476;49.404;11.152;2023-06-14T06:34:00;4.27;;;3.90;;
14768;SDS011;7476;49.404;11.152;2023-06-14T06:36:27;4.83;;;3.53;;
14768;SDS011;7476;49.404;11.152;2023-06-14T06:38:54;4.37;;;3.97;;
14768;SDS011;7476;49.404;11.152;2023-06-14T06:41:21;4.57;;;3.80;;
14768;SDS011;7476;49.404;11.152;2023-06-14T06:43:47;4.50;;;4.00;;
14768;SDS011;7476;49.404;11.152;2023-06-14T06:46:14;4.90;;;3.80;;
14768;SDS011;7476;49.404;11.152;2023-06-14T06:48:42;5.03;;;3.97;;
14768;SDS011;7476;49.404;11.152;2023-06-14T06:51:11;4.93;;;3.80;;
14768;SDS011;7476;49.404;11.152;2023-06-14T06:53:38;4.93;;;3.67;;
14768;SDS011;7476;49.404;11.152;2023-06-14T06:56:04;4.37;;;3.97;;
14768;SDS011;7476;49.404;11.152;2023-06-14T06:58:31;4.37;;;3.97;;
14768;SDS011;7476;49.404;11.152;2023-06-14T07:00:58;4.83;;;4.30;;
14768;SDS011;7476;49.404;11.152;2023-06-14T07:03:25;4.00;;;3.70;;
14768;SDS011;7476;49.404;11.152;2023-06-14T07:05:51;6.87;;;3.90;;
14768;SDS011;7476;49.404;11.152;2023-06-14T07:08:19;5.27;;;4.10;;
14768;SDS011;7476;49.404;11.152;2023-06-14T07:10:46;4.73;;;3.83;;
14768;SDS011;7476;49.404;11.152;2023-06-14T07:13:13;6.13;;;3.70;;
14768;SDS011;7476;49.404;11.152;2023-06-14T07:15:40;4.10;;;3.70;;
14768;SDS011;7476;49.404;11.152;2023-06-14T07:18:07;4.30;;;3.70;;
14768;SDS011;7476;49.404;11.152;2023-06-14T07:20:33;4.80;;;3.70;;
14768;SDS011;7476;49.404;11.152;2023-06-14T07:23:03;7.83;;;4.00;;
14768;SDS011;7476;49.404;11.152;2023-06-14T07:25:31;7.00;;;4.10;;
14768;SDS011;7476;49.404;11.152;2023-06-14T07:27:58;4.47;;;3.90;;
14768;SDS011;7476;49.404;11.152;2023-06-14T07:30:24;4.10;;;3.67;;
14768;SDS011;7476;49.404;11.152;2023-06-14T07:32:52;5.97;;;3.90;;
14768;SDS011;7476;49.404;11.152;2023-06-14T07:35:19;5.13;;;4.40;;
14768;SDS011;7476;49.404;11.152;2023-06-14T07:37:46;4.10;;;3.70;;
14768;SDS011;7476;49.404;11.152;2023-06-14T07:40:13;4.57;;;3.80;;
14768;SDS011;7476;49.404;11.152;2023-06-14T07:42:41;4.63;;;3.60;;
14768;SDS011;7476;49.404;11.152;2023-06-14T07:45:08;3.73;;;3.40;;
14768;SDS011;7476;49.404;11.152;2023-06-14T07:47:35;5.03;;;4.00;;
14768;SDS011;7476;49.404;11.152;2023-06-14T07:50:02;4.00;;;3.60;;
14768;SDS011;7476;49.404;11.152;2023-06-14T07:52:29;3.90;;;3.57;;
14768;SDS011;7476;49.404;11.152;2023-06-14T07:54:55;4.03;;;3.63;;
14768;SDS011;7476;49.404;11.152;2023-06-14T07:57:23;3.70;;;3.20;;
14768;SDS011;7476;49.404;11.152;2023-06-14T07:59:51;4.70;;;3.93;;
14768;SDS011;7476;49.404;11.152;2023-06-14T08:02:18;4.17;;;3.77;;
14768;SDS011;7476;49.404;11.152;2023-06-14T08:04:44;4.80;;;3.60;;
14768;SDS011;7476;49.404;11.152;2023-06-14T08:07:11;4.00;;;3.70;;
14768;SDS011;7476;49.404;11.152;2023-06-14T08:09:38;4.47;;;3.90;;
14768;SDS011;7476;49.404;11.152;2023-06-14T08:12:05;6.07;;;3.77;;
14768;SDS011;7476;49.404;11.152;2023-06-14T08:14:34;7.83;;;3.77;;
14768;SDS011;7476;49.404;11.152;2023-06-14T08:17:02;4.13;;;3.73;;
14768;SDS011;7476;49.404;11.152;2023-06-14T08:19:29;4.40;;;4.00;;
14768;SDS011;7476;49.404;11.152;2023-06-14T08:21:56;4.67;;;3.50;;
14768;SDS011;7476;49.404;11.152;2023-06-14T08:24:23;4.70;;;3.67;;
14768;SDS011;7476;49.404;11.152;2023-06-14T08:26:50;4.37;;;3.70;;
14768;SDS011;7476;49.404;11.152;2023-06-14T08:29:16;3.50;;;3.20;;
14768;SDS011;7476;49.404;11.152;2023-06-14T08:31:43;4.23;;;3.40;;
14768;SDS011;7476;49.404;11.152;2023-06-14T08:34:11;5.90;;;4.30;;
14768;SDS011;7476;49.404;11.152;2023-06-14T08:36:38;4.10;;;3.80;;
14768;SDS011;7476;49.404;11.152;2023-06-14T08:39:04;4.07;;;3.60;;
14768;SDS011;7476;49.404;11.152;2023-06-14T08:41:31;4.20;;;3.60;;
14768;SDS011;7476;49.404;11.152;2023-06-14T08:43:59;4.60;;;3.73;;
14768;SDS011;7476;49.404;11.152;2023-06-14T08:46:25;5.70;;;3.70;;
14768;SDS011;7476;49.404;11.152;2023-06-14T08:48:54;4.37;;;3.93;;
14768;SDS011;7476;49.404;11.152;2023-06-14T08:51:25;3.70;;;3.40;;
14768;SDS011;7476;49.404;11.152;2023-06-14T08:53:58;4.83;;;4.00;;
14768;SDS011;7476;49.404;11.152;2023-06-14T08:56:27;4.83;;;4.13;;
14768;SDS011;7476;49.404;11.152;2023-06-14T08:58:54;4.60;;;3.93;;
14768;SDS011;7476;49.404;11.152;2023-06-14T09:01:21;4.87;;;3.60;;
14768;SDS011;7476;49.404;11.152;2023-06-14T09:03:48;4.03;;;3.70;;
14768;SDS011;7476;49.404;11.152;2023-06-14T09:06:15;4.27;;;3.27;;
14768;SDS011;7476;49.404;11.152;2023-06-14T09:08:45;4.43;;;3.60;;
14768;SDS011;7476;49.404;11.152;2023-06-14T09:11:13;4.37;;;3.97;;
14768;SDS011;7476;49.404;11.152;2023-06-14T09:13:41;4.20;;;3.80;;
14768;SDS011;7476;49.404;11.152;2023-06-14T09:16:08;4.73;;;3.47;;
14768;SDS011;7476;49.404;11.152;2023-06-14T09:18:36;4.73;;;3.90;;
14768;SDS011;7476;49.404;11.152;2023-06-14T09:21:03;5.97;;;4.17;;
14768;SDS011;7476;49.404;11.152;2023-06-14T09:23:33;4.73;;;3.50;;
14768;SDS011;7476;49.404;11.152;2023-06-14T09:26:03;5.17;;;3.80;;
14768;SDS011;7476;49.404;11.152;2023-06-14T09:28:33;3.97;;;3.60;;
14768;SDS011;7476;49.404;11.152;2023-06-14T09:30:59;4.53;;;3.70;;
14768;SDS011;7476;49.404;11.152;2023-06-14T09:33:26;5.30;;;4.10;;
14768;SDS011;7476;49.404;11.152;2023-06-14T09:35:54;3.77;;;3.37;;
14768;SDS011;7476;49.404;11.152;2023-06-14T09:38:21;5.27;;;3.50;;
14768;SDS011;7476;49.404;11.152;2023-06-14T09:40:47;6.53;;;4.07;;
14768;SDS011;7476;49.404;11.152;2023-06-14T09:43:17;3.97;;;3.63;;
14768;SDS011;7476;49.404;11.152;2023-06-14T09:45:46;4.23;;;3.70;;
14768;SDS011;7476;49.404;11.152;2023-06-14T09:48:13;4.93;;;3.80;;
14768;SDS011;7476;49.404;11.152;2023-06-14T09:50:42;4.40;;;3.43;;
14768;SDS011;7476;49.404;11.152;2023-06-14T09:53:12;4.33;;;3.80;;
14768;SDS011;7476;49.404;11.152;2023-06-14T09:55:40;4.20;;;3.80;;
14768;SDS011;7476;49.404;11.152;2023-06-14T09:58:08;4.07;;;3.67;;
14768;SDS011;7476;49.404;11.152;2023-06-14T10:00:38;4.63;;;3.63;;
14768;SDS011;7476;49.404;11.152;2023-06-14T10:03:06;4.30;;;3.90;;
14768;SDS011;7476;49.404;11.152;2023-06-14T10:05:41;5.43;;;4.00;;
14768;SDS011;7476;49.404;11.152;2023-06-14T10:08:11;6.03;;;3.87;;
14768;SDS011;7476;49.404;11.152;2023-06-14T10:10:41;4.30;;;3.87;;
14768;SDS011;7476;49.404;11.152;2023-06-14T10:13:08;4.90;;;3.73;;
14768;SDS011;7476;49.404;11.152;2023-06-14T10:15:41;5.17;;;4.00;;
14768;SDS011;7476;49.404;11.152;2023-06-14T10:18:14;6.57;;;3.90;;
14768;SDS011;7476;49.404;11.152;2023-06-14T10:20:51;5.27;;;3.83;;
14768;SDS011;7476;49.404;11.152;2023-06-14T10:23:26;4.63;;;3.70;;
14768;SDS011;7476;49.404;11.152;2023-06-14T10:25:56;4.53;;;3.87;;
14768;SDS011;7476;49.404;11.152;2023-06-14T10:28:24;4.67;;;3.97;;
14768;SDS011;7476;49.404;11.152;2023-06-14T10:31:02;4.87;;;3.93;;
14768;SDS011;7476;49.404;11.152;2023-06-14T10:33:30;5.37;;;3.80;;
14768;SDS011;7476;49.404;11.152;2023-06-14T10:36:06;4.10;;;3.80;;
14768;SDS011;7476;49.404;11.152;2023-06-14T10:38:35;5.33;;;3.90;;
14768;SDS011;7476;49.404;11.152;2023-06-14T10:41:03;4.87;;;3.80;;
14768;SDS011;7476;49.404;11.152;2023-06-14T10:43:31;5.13;;;3.57;;
14768;SDS011;7476;49.404;11.152;2023-06-14T10:46:17;6.07;;;3.90;;
14768;SDS011;7476;49.404;11.152;2023-06-14T10:48:48;4.87;;;3.70;;
14768;SDS011;7476;49.404;11.152;2023-06-14T10:51:15;4.03;;;3.60;;
14768;SDS011;7476;49.404;11.152;2023-06-14T10:53:45;7.53;;;3.77;;
14768;SDS011;7476;49.404;11.152;2023-06-14T10:56:22;5.10;;;3.73;;
14768;SDS011;7476;49.404;11.152;2023-06-14T10:58:51;5.17;;;3.73;;
14768;SDS011;7476;49.404;11.152;2023-06-14T11:01:19;4.57;;;3.63;;
14768;SDS011;7476;49.404;11.152;2023-06-14T11:04:01;4.33;;;3.60;;
14768;SDS011;7476;49.404;11.152;2023-06-14T11:06:37;4.73;;;3.40;;
14768;SDS011;7476;49.404;11.152;2023-06-14T11:09:19;4.57;;;3.47;;
14768;SDS011;7476;49.404;11.152;2023-06-14T11:12:20;5.37;;;3.63;;
14768;SDS011;7476;49.404;11.152;2023-06-14T11:14:48;5.43;;;3.97;;
14768;SDS011;7476;49.404;11.152;2023-06-14T11:17:16;4.00;;;3.63;;
14768;SDS011;7476;49.404;11.152;2023-06-14T11:19:43;4.47;;;3.73;;
14768;SDS011;7476;49.404;11.152;2023-06-14T11:22:10;3.93;;;3.53;;
14768;SDS011;7476;49.404;11.152;2023-06-14T11:24:39;6.17;;;3.80;;
14768;SDS011;7476;49.404;11.152;2023-06-14T11:27:06;4.70;;;3.80;;
14768;SDS011;7476;49.404;11.152;2023-06-14T11:29:33;5.07;;;3.70;;
14768;SDS011;7476;49.404;11.152;2023-06-14T11:32:00;4.00;;;3.60;;
14768;SDS011;7476;49.404;11.152;2023-06-14T11:34:28;5.13;;;3.37;;
14768;SDS011;7476;49.404;11.152;2023-06-14T11:36:55;3.67;;;3.37;;
14768;SDS011;7476;49.404;11.152;2023-06-14T11:39:24;5.03;;;3.73;;
14768;SDS011;7476;49.404;11.152;2023-06-14T11:41:53;4.67;;;3.30;;
14768;SDS011;7476;49.404;11.152;2023-06-14T11:44:20;3.80;;;3.50;;
14768;SDS011;7476;49.404;11.152;2023-06-14T11:46:47;7.07;;;3.50;;
14768;SDS011;7476;49.404;11.152;2023-06-14T11:49:13;3.97;;;3.57;;
14768;SDS011;7476;49.404;11.152;2023-06-14T11:51:42;5.67;;;3.87;;
14768;SDS011;7476;49.404;11.152;2023-06-14T11:54:09;5.20;;;3.70;;
14768;SDS011;7476;49.404;11.152;2023-06-14T11:56:36;4.87;;;3.80;;
14768;SDS011;7476;49.404;11.152;2023-06-14T11:59:03;4.70;;;3.50;;
14768;SDS011;7476;49.404;11.152;2023-06-14T12:01:30;3.93;;;3.60;;
14768;SDS011;7476;49.404;11.152;2023-06-14T12:03:58;4.20;;;3.47;;
14768;SDS011;7476;49.404;11.152;2023-06-14T12:06:26;5.15;;;3.50;;
14768;SDS011;7476;49.404;11.152;2023-06-14T12:08:59;4.90;;;3.83;;
14768;SDS011;7476;49.404;11.152;2023-06-14T12:11:31;4.40;;;3.58;;
14768;SDS011;7476;49.404;11.152;2023-06-14T12:13:59;5.18;;;3.75;;
14768;SDS011;7476;49.404;11.152;2023-06-14T12:16:29;5.40;;;3.45;;
14768;SDS011;7476;49.404;11.152;2023-06-14T12:18:59;4.15;;;3.40;;
14768;SDS011;7476;49.404;11.152;2023-06-14T12:21:27;3.73;;;3.43;;
14768;SDS011;7476;49.404;11.152;2023-06-14T12:23:54;3.53;;;3.27;;
14768;SDS011;7476;49.404;11.152;2023-06-14T12:26:22;4.10;;;3.57;;
14768;SDS011;7476;49.404;11.152;2023-06-14T12:28:51;3.80;;;3.47;;
14768;SDS011;7476;49.404;11.152;2023-06-14T12:31:18;3.93;;;3.37;;
14768;SDS011;7476;49.404;11.152;2023-06-14T12:33:46;5.07;;;3.60;;
14768;SDS011;7476;49.404;11.152;2023-06-14T12:36:14;4.40;;;3.60;;
14768;SDS011;7476;49.404;11.152;2023-06-14T12:38:41;5.33;;;3.20;;
14768;SDS011;7476;49.404;11.152;2023-06-14T12:41:08;6.00;;;3.77;;
14768;SDS011;7476;49.404;11.152;2023-06-14T12:43:36;5.90;;;3.70;;
14768;SDS011;7476;49.404;11.152;2023-06-14T12:46:03;4.60;;;3.33;;
14768;SDS011;7476;49.404;11.152;2023-06-14T12:48:30;3.60;;;3.07;;
14768;SDS011;7476;49.404;11.152;2023-06-14T12:50:57;3.77;;;3.47;;
14768;SDS011;7476;49.404;11.152;2023-06-14T12:53:23;6.10;;;3.73;;
14768;SDS011;7476;49.404;11.152;2023-06-14T12:55:50;3.70;;;3.30;;
14768;SDS011;7476;49.404;11.152;2023-06-14T12:58:17;4.00;;;3.60;;
14768;SDS011;7476;49.404;11.152;2023-06-14T13:00:46;4.40;;;3.30;;
14768;SDS011;7476;49.404;11.152;2023-06-14T13:03:12;4.80;;;3.27;;
14768;SDS011;7476;49.404;11.152;2023-06-14T13:05:39;4.28;;;3.63;;
14768;SDS011;7476;49.404;11.152;2023-06-14T13:08:06;3.75;;;3.45;;
14768;SDS011;7476;49.404;11.152;2023-06-14T13:10:34;4.65;;;3.40;;
14768;SDS011;7476;49.404;11.152;2023-06-14T13:13:01;3.67;;;3.38;;
14768;SDS011;7476;49.404;11.152;2023-06-14T13:15:27;4.00;;;3.55;;
14768;SDS011;7476;49.404;11.152;2023-06-14T13:17:56;5.75;;;3.40;;
14768;SDS011;7476;49.404;11.152;2023-06-14T13:20:22;4.18;;;3.60;;
14768;SDS011;7476;49.404;11.152;2023-06-14T13:22:49;3.65;;;3.33;;
14768;SDS011;7476;49.404;11.152;2023-06-14T13:25:16;4.15;;;3.25;;
14768;SDS011;7476;49.404;11.152;2023-06-14T13:27:43;3.73;;;3.43;;
14768;SDS011;7476;49.404;11.152;2023-06-14T13:30:11;7.50;;;3.50;;
14768;SDS011;7476;49.404;11.152;2023-06-14T13:32:38;3.63;;;3.33;;
14768;SDS011;7476;49.404;11.152;2023-06-14T13:35:06;3.73;;;3.10;;
14768;SDS011;7476;49.404;11.152;2023-06-14T13:37:33;4.67;;;3.40;;
14768;SDS011;7476;49.404;11.152;2023-06-14T13:39:59;3.63;;;3.33;;
14768;SDS011;7476;49.404;11.152;2023-06-14T13:42:26;3.93;;;3.60;;
14768;SDS011;7476;49.404;11.152;2023-06-14T13:44:56;4.13;;;3.70;;
14768;SDS011;7476;49.404;11.152;2023-06-14T13:47:23;3.80;;;3.50;;
14768;SDS011;7476;49.404;11.152;2023-06-14T13:49:49;3.83;;;3.50;;
14768;SDS011;7476;49.404;11.152;2023-06-14T13:52:18;3.93;;;3.63;;
14768;SDS011;7476;49.404;11.152;2023-06-14T13:54:44;4.07;;;3.77;;
14768;SDS011;7476;49.404;11.152;2023-06-14T13:57:11;3.60;;;3.30;;
14768;SDS011;7476;49.404;11.152;2023-06-14T13:59:38;3.83;;;3.53;;
14768;SDS011;7476;49.404;11.152;2023-06-14T14:02:05;5.03;;;3.43;;
14768;SDS011;7476;49.404;11.152;2023-06-14T14:04:32;3.73;;;3.43;;
14768;SDS011;7476;49.404;11.152;2023-06-14T14:06:59;3.80;;;3.50;;
14768;SDS011;7476;49.404;11.152;2023-06-14T14:09:27;3.80;;;3.40;;
14768;SDS011;7476;49.404;11.152;2023-06-14T14:11:54;4.80;;;3.50;;
14768;SDS011;7476;49.404;11.152;2023-06-14T14:14:21;4.93;;;3.43;;
14768;SDS011;7476;49.404;11.152;2023-06-14T14:16:48;4.90;;;3.30;;
14768;SDS011;7476;49.404;11.152;2023-06-14T14:19:16;3.93;;;3.63;;
14768;SDS011;7476;49.404;11.152;2023-06-14T14:21:43;3.83;;;3.53;;
14768;SDS011;7476;49.404;11.152;2023-06-14T14:24:10;4.37;;;3.50;;
14768;SDS011;7476;49.404;11.152;2023-06-14T14:26:38;4.73;;;3.37;;
14768;SDS011;7476;49.404;11.152;2023-06-14T14:29:05;4.10;;;3.70;;
14768;SDS011;7476;49.404;11.152;2023-06-14T14:31:32;4.63;;;3.73;;
14768;SDS011;7476;49.404;11.152;2023-06-14T14:33:58;7.13;;;3.70;;
14768;SDS011;7476;49.404;11.152;2023-06-14T14:36:25;6.33;;;3.67;;
14768;SDS011;7476;49.404;11.152;2023-06-14T14:38:51;4.77;;;3.60;;
14768;SDS011;7476;49.404;11.152;2023-06-14T14:41:18;5.73;;;3.20;;
14768;SDS011;7476;49.404;11.152;2023-06-14T14:43:46;3.70;;;3.40;;
14768;SDS011;7476;49.404;11.152;2023-06-14T14:46:13;4.40;;;3.47;;
14768;SDS011;7476;49.404;11.152;2023-06-14T14:48:41;5.40;;;3.30;;
14768;SDS011;7476;49.404;11.152;2023-06-14T14:51:08;4.03;;;3.10;;
14768;SDS011;7476;49.404;11.152;2023-06-14T14:53:35;4.82;;;3.40;;